createdAt,value
2023-05-09T00:01:18.448Z,10.18
2023-05-09T00:04:21.412Z,10.11
2023-05-09T00:07:24.032Z,10.13
2023-05-09T00:10:27.557Z,9.80
2023-05-09T00:13:30.076Z,9.84
2023-05-09T00:16:33.165Z,9.93
2023-05-09T00:19:35.678Z,10.05
2023-05-09T00:22:41.667Z,10.02
2023-05-09T00:25:44.400Z,9.95
2023-05-09T00:28:46.844Z,9.98
2023-05-09T00:31:49.744Z,9.82
2023-05-09T00:34:52.874Z,9.79
2023-05-09T00:37:55.472Z,9.82
2023-05-09T00:40:58.112Z,9.63
2023-05-09T00:44:00.552Z,9.66
2023-05-09T00:47:03.118Z,9.69
2023-05-09T00:50:06.555Z,9.44
2023-05-09T00:53:09.264Z,9.63
2023-05-09T00:56:12.336Z,9.50
2023-05-09T00:59:16.957Z,9.46
2023-05-09T01:02:20.316Z,9.36
2023-05-09T01:05:31.090Z,9.43
2023-05-09T01:08:44.596Z,9.32
2023-05-09T01:11:53.041Z,9.37
2023-05-09T01:15:18.484Z,9.33
2023-05-09T01:18:45.639Z,9.18
2023-05-09T01:21:48.320Z,9.17
2023-05-09T01:25:13.311Z,9.32
2023-05-09T01:29:12.480Z,9.14
2023-05-09T01:32:20.119Z,9.14
2023-05-09T01:35:23.245Z,9.18
2023-05-09T01:38:26.140Z,9.11
2023-05-09T01:41:30.247Z,8.88
2023-05-09T01:44:39.819Z,8.92
2023-05-09T01:47:42.081Z,8.98
2023-05-09T01:50:44.750Z,8.95
2023-05-09T01:53:47.798Z,8.86
2023-05-09T01:56:50.285Z,8.97
2023-05-09T01:59:52.738Z,8.96
2023-05-09T02:02:55.380Z,9.00
2023-05-09T02:05:58.127Z,8.96
2023-05-09T02:09:00.748Z,8.92
2023-05-09T02:12:04.741Z,8.63
2023-05-09T02:15:08.887Z,8.66
2023-05-09T02:18:16.970Z,8.66
2023-05-09T02:21:19.529Z,8.70
2023-05-09T02:24:22.199Z,8.76
2023-05-09T02:27:25.633Z,8.72
2023-05-09T02:30:29.955Z,8.77
2023-05-09T02:33:33.414Z,8.66
2023-05-09T02:36:35.879Z,8.77
2023-05-09T02:39:38.269Z,8.87
2023-05-09T02:42:41.001Z,8.66
2023-05-09T02:45:43.993Z,8.61
2023-05-09T02:48:46.520Z,8.60
2023-05-09T02:51:48.954Z,8.59
2023-05-09T02:54:51.581Z,8.72
2023-05-09T02:58:05.669Z,8.72
2023-05-09T03:01:12.284Z,8.62
2023-05-09T03:04:15.018Z,8.59
2023-05-09T03:07:17.551Z,8.62
2023-05-09T03:10:20.217Z,8.37
2023-05-09T03:13:23.102Z,8.33
2023-05-09T03:16:25.695Z,8.41
2023-05-09T03:19:28.220Z,8.38
2023-05-09T03:22:30.740Z,8.42
2023-05-09T03:25:37.834Z,8.44
2023-05-09T03:28:41.691Z,8.46
2023-05-09T03:31:44.370Z,8.38
2023-05-09T03:34:47.047Z,8.50
2023-05-09T03:37:49.537Z,8.31
2023-05-09T03:40:53.790Z,8.36
2023-05-09T03:43:57.361Z,8.49
2023-05-09T03:46:59.950Z,8.49
2023-05-09T03:50:07.043Z,8.72
2023-05-09T03:53:10.780Z,8.71
2023-05-09T03:56:14.450Z,8.60
2023-05-09T03:59:22.377Z,8.64
2023-05-09T04:02:25.209Z,8.73
2023-05-09T04:05:27.917Z,8.66
2023-05-09T04:08:32.958Z,8.76
2023-05-09T04:11:36.808Z,8.73
2023-05-09T04:14:46.749Z,8.85
2023-05-09T04:17:50.922Z,8.84
2023-05-09T04:20:53.753Z,8.94
2023-05-09T04:23:56.773Z,8.98
2023-05-09T04:27:06.458Z,9.08
2023-05-09T04:30:11.026Z,9.20
2023-05-09T04:33:14.220Z,9.18
2023-05-09T04:36:18.320Z,9.22
2023-05-09T04:39:21.787Z,9.27
2023-05-09T04:42:41.383Z,9.41
2023-05-09T04:45:45.184Z,9.48
2023-05-09T04:48:48.510Z,9.51
2023-05-09T04:51:51.796Z,9.64
2023-05-09T04:54:54.738Z,9.74
2023-05-09T04:58:03.015Z,9.84
2023-05-09T05:01:06.108Z,9.83
2023-05-09T05:04:08.780Z,9.88
2023-05-09T05:07:11.500Z,10.04
2023-05-09T05:10:14.500Z,10.08
2023-05-09T05:13:21.714Z,10.15
2023-05-09T05:16:28.599Z,10.12
2023-05-09T05:19:32.222Z,10.33
2023-05-09T05:22:38.216Z,10.39
2023-05-09T05:25:41.249Z,10.38
2023-05-09T05:28:43.843Z,10.53
2023-05-09T05:31:46.716Z,10.57
2023-05-09T05:34:49.801Z,10.77
2023-05-09T05:37:52.711Z,10.91
2023-05-09T05:40:55.378Z,10.99
2023-05-09T05:43:59.505Z,11.19
2023-05-09T05:47:02.015Z,11.22
2023-05-09T05:50:07.091Z,11.35
2023-05-09T05:53:11.556Z,11.44
2023-05-09T05:56:14.669Z,11.52
2023-05-09T05:59:17.270Z,11.65
2023-05-09T06:02:19.897Z,11.79
2023-05-09T06:05:23.422Z,11.94
2023-05-09T06:08:27.099Z,12.03
2023-05-09T06:11:29.546Z,12.16
2023-05-09T06:14:32.241Z,12.22
2023-05-09T06:17:35.163Z,12.28
2023-05-09T06:20:37.721Z,12.40
2023-05-09T06:23:47.293Z,12.57
2023-05-09T06:26:59.927Z,12.66
2023-05-09T06:30:08.374Z,12.80
2023-05-09T06:33:17.031Z,12.92
2023-05-09T06:36:19.684Z,12.95
2023-05-09T06:39:22.660Z,13.04
2023-05-09T06:42:25.549Z,13.12
2023-05-09T06:45:28.327Z,13.25
2023-05-09T06:48:30.847Z,13.43
2023-05-09T06:51:33.823Z,13.56
2023-05-09T06:54:36.287Z,13.61
2023-05-09T06:57:40.478Z,13.74
2023-05-09T07:00:43.400Z,13.85
2023-05-09T07:03:47.631Z,13.89
2023-05-09T07:06:50.082Z,13.98
2023-05-09T07:09:57.901Z,14.16
2023-05-09T07:13:06.709Z,14.30
2023-05-09T07:16:10.555Z,14.56
2023-05-09T07:19:13.020Z,14.73
2023-05-09T07:22:15.640Z,14.87
2023-05-09T07:25:18.361Z,15.08
2023-05-09T07:28:20.921Z,15.29
2023-05-09T07:31:23.342Z,15.54
2023-05-09T07:34:26.047Z,15.79
2023-05-09T07:37:28.840Z,15.96
2023-05-09T07:40:31.927Z,16.18
2023-05-09T07:43:34.367Z,16.27
2023-05-09T07:46:42.119Z,16.48
2023-05-09T07:49:46.610Z,16.64
2023-05-09T07:52:49.720Z,16.94
2023-05-09T07:55:52.368Z,17.09
2023-05-09T07:58:55.863Z,17.33
2023-05-09T08:01:58.450Z,17.44
2023-05-09T08:05:01.327Z,17.72
2023-05-09T08:08:04.391Z,17.76
2023-05-09T08:11:06.804Z,18.12
2023-05-09T08:14:10.513Z,18.29
2023-05-09T08:17:12.946Z,18.40
2023-05-09T08:20:15.601Z,18.32
2023-05-09T08:23:18.003Z,18.45
2023-05-09T08:26:22.671Z,18.69
2023-05-09T08:29:25.219Z,18.97
2023-05-09T08:32:27.910Z,19.12
2023-05-09T08:35:30.412Z,19.38
2023-05-09T08:38:32.931Z,19.51
2023-05-09T08:41:39.003Z,19.62
2023-05-09T08:44:41.702Z,19.57
2023-05-09T08:47:44.676Z,19.89
2023-05-09T08:50:47.325Z,20.12
2023-05-09T08:53:52.561Z,20.14
2023-05-09T08:56:55.235Z,19.88
2023-05-09T08:59:57.993Z,19.94
2023-05-09T09:03:02.188Z,20.05
2023-05-09T09:06:04.862Z,20.49
2023-05-09T09:09:09.050Z,20.64
2023-05-09T09:12:15.821Z,20.65
2023-05-09T09:15:18.500Z,21.00
2023-05-09T09:18:27.082Z,21.31
2023-05-09T09:21:32.192Z,21.18
2023-05-09T09:24:34.725Z,21.45
2023-05-09T09:27:37.353Z,21.35
2023-05-09T09:30:48.041Z,21.54
2023-05-09T09:33:51.302Z,22.05
2023-05-09T09:36:54.191Z,22.13
2023-05-09T09:39:57.222Z,21.85
2023-05-09T09:42:59.916Z,21.92
2023-05-09T09:46:03.620Z,21.78
2023-05-09T09:49:06.242Z,20.56
2023-05-09T09:52:08.589Z,21.48
2023-05-09T09:55:12.163Z,20.76
2023-05-09T09:58:18.751Z,20.99
2023-05-09T10:01:21.360Z,20.53
2023-05-09T10:04:24.317Z,20.78
2023-05-09T10:07:26.841Z,21.07
2023-05-09T10:10:36.750Z,19.97
2023-05-09T10:13:39.459Z,21.35
2023-05-09T10:16:44.611Z,22.24
2023-05-09T10:19:47.802Z,22.39
2023-05-09T10:22:51.122Z,21.72
2023-05-09T10:26:00.781Z,20.80
2023-05-09T10:29:03.266Z,20.36
2023-05-09T10:32:20.813Z,22.49
2023-05-09T10:35:26.555Z,23.34
2023-05-09T10:38:29.111Z,22.41
2023-05-09T10:41:31.638Z,21.34
2023-05-09T10:44:34.249Z,22.56
2023-05-09T10:47:37.132Z,24.07
2023-05-09T10:50:40.530Z,24.78
2023-05-09T10:53:48.009Z,25.58
2023-05-09T10:56:50.617Z,25.33
2023-05-09T10:59:53.156Z,25.26
2023-05-09T11:03:08.292Z,24.80
2023-05-09T11:06:11.135Z,24.23
2023-05-09T11:09:37.908Z,25.31
2023-05-09T11:12:59.986Z,24.20
2023-05-09T11:16:02.592Z,24.30
2023-05-09T11:19:05.996Z,23.19
2023-05-09T11:22:32.546Z,22.16
2023-05-09T11:25:36.198Z,21.60
2023-05-09T11:28:38.982Z,24.18
2023-05-09T11:32:07.296Z,26.52
2023-05-09T11:35:15.644Z,27.94
2023-05-09T11:38:21.358Z,29.02
2023-05-09T11:41:23.855Z,29.37
2023-05-09T11:44:27.911Z,30.15
2023-05-09T11:47:31.079Z,26.96
2023-05-09T11:50:33.650Z,24.05
2023-05-09T11:53:45.168Z,25.15
2023-05-09T11:56:47.506Z,26.71
2023-05-09T11:59:49.960Z,27.24
2023-05-09T12:02:53.471Z,27.00
2023-05-09T12:05:56.233Z,26.32
2023-05-09T12:08:58.716Z,25.46
2023-05-09T12:12:01.611Z,27.10
2023-05-09T12:15:07.908Z,25.06
2023-05-09T12:18:10.539Z,23.31
2023-05-09T12:21:12.981Z,23.50
2023-05-09T12:24:21.435Z,26.98
2023-05-09T12:27:23.974Z,27.38
2023-05-09T12:30:26.522Z,29.75
2023-05-09T12:33:29.171Z,30.34
2023-05-09T12:36:36.044Z,28.70
2023-05-09T12:39:38.487Z,28.29
2023-05-09T12:42:43.743Z,29.42
2023-05-09T12:45:46.196Z,26.64
2023-05-09T12:48:49.547Z,24.95
2023-05-09T12:51:53.745Z,24.51
2023-05-09T12:54:56.336Z,25.25
2023-05-09T12:57:59.973Z,26.54
2023-05-09T13:01:03.999Z,24.85
2023-05-09T13:04:07.682Z,26.44
2023-05-09T13:07:13.133Z,29.73
2023-05-09T13:10:21.704Z,29.35
2023-05-09T13:13:27.894Z,28.23
2023-05-09T13:16:30.658Z,30.16
2023-05-09T13:19:39.394Z,30.76
2023-05-09T13:22:41.904Z,31.21
2023-05-09T13:25:44.787Z,32.11
2023-05-09T13:28:47.349Z,31.64
2023-05-09T13:31:49.673Z,31.02
2023-05-09T13:34:52.588Z,31.16
2023-05-09T13:37:55.051Z,31.94
2023-05-09T13:40:57.953Z,31.99
2023-05-09T13:44:00.462Z,28.53
2023-05-09T13:47:02.901Z,25.84
2023-05-09T13:50:06.132Z,24.81
2023-05-09T13:53:08.560Z,23.95
2023-05-09T13:56:11.044Z,23.61
2023-05-09T13:59:13.815Z,26.11
2023-05-09T14:02:16.312Z,27.83
2023-05-09T14:05:18.924Z,28.06
2023-05-09T14:08:21.552Z,26.64
2023-05-09T14:11:26.183Z,26.83
2023-05-09T14:14:28.913Z,26.23
2023-05-09T14:17:31.503Z,26.58
2023-05-09T14:20:37.085Z,27.48
2023-05-09T14:23:39.510Z,27.22
2023-05-09T14:26:42.136Z,27.51
2023-05-09T14:29:44.777Z,28.23
2023-05-09T14:32:47.294Z,27.35
2023-05-09T14:35:49.875Z,25.86
2023-05-09T14:38:52.875Z,27.54
2023-05-09T14:41:55.961Z,27.76
2023-05-09T14:44:58.856Z,28.04
2023-05-09T14:48:02.653Z,28.17
2023-05-09T14:51:05.552Z,28.65
2023-05-09T14:54:08.383Z,28.58
2023-05-09T14:57:10.797Z,28.50
2023-05-09T15:00:21.457Z,28.89
2023-05-09T15:03:25.070Z,28.93
2023-05-09T15:06:29.235Z,29.27
2023-05-09T15:09:31.826Z,28.29
2023-05-09T15:12:34.232Z,28.10
2023-05-09T15:15:39.868Z,25.29
2023-05-09T15:18:46.252Z,23.83
2023-05-09T15:21:48.721Z,22.49
2023-05-09T15:24:51.234Z,22.29
2023-05-09T15:27:54.185Z,22.01
2023-05-09T15:30:58.207Z,21.97
2023-05-09T15:34:01.429Z,21.67
2023-05-09T15:37:04.068Z,21.43
2023-05-09T15:40:07.907Z,21.29
2023-05-09T15:43:10.459Z,22.43
2023-05-09T15:46:13.323Z,22.94
2023-05-09T15:49:15.834Z,23.58
2023-05-09T15:52:18.246Z,22.65
2023-05-09T15:55:20.760Z,21.90
2023-05-09T15:58:23.614Z,21.49
2023-05-09T16:01:26.327Z,20.98
2023-05-09T16:04:28.785Z,20.53
2023-05-09T16:07:33.259Z,20.22
2023-05-09T16:10:36.696Z,20.06
2023-05-09T16:13:39.208Z,19.93
2023-05-09T16:16:42.988Z,20.01
2023-05-09T16:19:45.491Z,19.98
2023-05-09T16:22:48.127Z,19.88
2023-05-09T16:25:50.763Z,19.86
2023-05-09T16:28:53.133Z,19.74
2023-05-09T16:31:55.896Z,19.80
2023-05-09T16:34:58.353Z,19.80
2023-05-09T16:38:01.126Z,19.84
2023-05-09T16:41:03.710Z,19.87
2023-05-09T16:44:06.304Z,19.80
2023-05-09T16:47:09.125Z,19.70
2023-05-09T16:50:11.666Z,19.59
2023-05-09T16:53:14.698Z,19.40
2023-05-09T16:56:17.137Z,19.01
2023-05-09T16:59:20.310Z,18.88
2023-05-09T17:02:22.714Z,18.71
2023-05-09T17:05:25.511Z,18.38
2023-05-09T17:08:27.882Z,18.28
2023-05-09T17:11:30.444Z,18.16
2023-05-09T17:14:33.313Z,18.16
2023-05-09T17:17:36.110Z,18.14
2023-05-09T17:20:38.694Z,17.83
2023-05-09T17:23:41.596Z,17.92
2023-05-09T17:26:43.991Z,17.81
2023-05-09T17:29:46.450Z,17.72
2023-05-09T17:32:49.138Z,17.61
2023-05-09T17:35:51.532Z,17.65
2023-05-09T17:38:53.969Z,17.57
2023-05-09T17:41:56.742Z,17.40
2023-05-09T17:44:59.284Z,17.38
2023-05-09T17:48:02.294Z,17.28
2023-05-09T17:51:04.943Z,17.04
2023-05-09T17:54:07.628Z,16.94
2023-05-09T17:57:10.177Z,16.92
2023-05-09T18:00:13.345Z,16.73
2023-05-09T18:03:16.426Z,16.69
2023-05-09T18:06:19.348Z,16.65
2023-05-09T18:09:22.990Z,16.52
2023-05-09T18:12:28.908Z,16.50
2023-05-09T18:15:32.103Z,16.31
2023-05-09T18:18:35.759Z,16.09
2023-05-09T18:21:38.856Z,15.94
2023-05-09T18:24:41.351Z,15.80
2023-05-09T18:27:43.876Z,15.78
2023-05-09T18:30:46.300Z,15.75
2023-05-09T18:33:49.222Z,15.57
2023-05-09T18:36:52.585Z,15.56
2023-05-09T18:39:55.017Z,15.39
2023-05-09T18:42:57.654Z,15.19
2023-05-09T18:46:00.293Z,15.28
2023-05-09T18:49:05.960Z,15.31
2023-05-09T18:52:09.413Z,15.23
2023-05-09T18:55:14.833Z,15.13
2023-05-09T18:58:17.416Z,15.24
2023-05-09T19:01:19.960Z,15.12
2023-05-09T19:04:22.845Z,15.09
2023-05-09T19:07:25.652Z,15.04
2023-05-09T19:10:28.224Z,14.97
2023-05-09T19:13:33.557Z,14.91
2023-05-09T19:16:36.126Z,14.91
2023-05-09T19:19:38.710Z,14.83
2023-05-09T19:22:45.581Z,14.77
2023-05-09T19:25:49.912Z,14.68
2023-05-09T19:28:54.715Z,14.77
2023-05-09T19:31:57.354Z,14.65
2023-05-09T19:34:59.994Z,14.65
2023-05-09T19:38:02.674Z,14.58
2023-05-09T19:41:05.291Z,14.56
2023-05-09T19:44:08.376Z,14.56
2023-05-09T19:47:11.013Z,14.55
2023-05-09T19:50:13.764Z,14.38
2023-05-09T19:53:16.496Z,14.40
2023-05-09T19:56:18.935Z,14.31
2023-05-09T19:59:21.362Z,14.37
2023-05-09T20:02:24.001Z,14.31
2023-05-09T20:05:45.404Z,14.28
2023-05-09T20:08:47.939Z,14.24
2023-05-09T20:11:50.728Z,14.19
2023-05-09T20:14:53.207Z,14.22
2023-05-09T20:17:55.702Z,14.20
2023-05-09T20:20:59.832Z,14.20
2023-05-09T20:24:02.621Z,14.05
2023-05-09T20:27:04.980Z,14.09
2023-05-09T20:30:07.978Z,14.04
2023-05-09T20:33:10.764Z,14.06
2023-05-09T20:36:13.439Z,13.96
2023-05-09T20:39:17.819Z,13.99
2023-05-09T20:42:20.193Z,13.95
2023-05-09T20:45:22.980Z,13.96
2023-05-09T20:48:26.026Z,13.96
2023-05-09T20:51:28.264Z,13.86
2023-05-09T20:54:31.101Z,13.81
2023-05-09T20:57:33.464Z,13.72
2023-05-09T21:00:35.851Z,13.70
2023-05-09T21:03:38.676Z,13.60
2023-05-09T21:06:41.220Z,13.60
2023-05-09T21:09:43.843Z,13.56
2023-05-09T21:12:46.452Z,13.41
2023-05-09T21:15:50.896Z,13.41
2023-05-09T21:18:53.493Z,13.44
2023-05-09T21:21:56.291Z,13.50
2023-05-09T21:24:58.984Z,13.49
2023-05-09T21:28:01.594Z,13.51
2023-05-09T21:31:04.195Z,13.53
2023-05-09T21:34:10.280Z,13.58
2023-05-09T21:37:13.184Z,13.58
2023-05-09T21:40:16.366Z,13.55
2023-05-09T21:43:19.414Z,13.60
2023-05-09T21:46:21.915Z,13.68
2023-05-09T21:49:24.425Z,13.52
2023-05-09T21:52:26.847Z,13.45
2023-05-09T21:55:29.337Z,13.40
2023-05-09T21:58:31.978Z,13.40
2023-05-09T22:01:34.469Z,13.43
2023-05-09T22:04:37.246Z,13.48
2023-05-09T22:07:39.660Z,13.44
2023-05-09T22:10:41.978Z,13.52
2023-05-09T22:13:44.403Z,13.55
2023-05-09T22:16:47.087Z,13.49
2023-05-09T22:19:49.815Z,13.53
2023-05-09T22:22:52.306Z,13.60
2023-05-09T22:25:54.989Z,13.58
2023-05-09T22:28:57.941Z,13.66
2023-05-09T22:32:01.309Z,13.68
2023-05-09T22:35:03.995Z,13.79
2023-05-09T22:38:06.629Z,13.66
2023-05-09T22:41:09.269Z,13.69
2023-05-09T22:44:11.665Z,13.71
2023-05-09T22:47:14.132Z,13.72
2023-05-09T22:50:17.212Z,13.77
2023-05-09T22:53:19.827Z,13.69
2023-05-09T22:56:22.410Z,13.88
2023-05-09T22:59:25.471Z,13.94
2023-05-09T23:02:28.144Z,13.98
2023-05-09T23:09:28.102Z,13.86
2023-05-09T23:12:30.917Z,13.87
2023-05-09T23:15:33.613Z,13.81
2023-05-09T23:18:35.990Z,13.87
2023-05-09T23:21:38.485Z,13.79
2023-05-09T23:24:41.310Z,13.67
2023-05-09T23:27:45.270Z,13.55
2023-05-09T23:30:47.904Z,13.57
2023-05-09T23:33:50.743Z,13.64
2023-05-09T23:36:53.270Z,13.60
2023-05-09T23:39:56.234Z,13.53
2023-05-09T23:42:58.896Z,13.50
2023-05-09T23:46:02.167Z,13.47
2023-05-09T23:49:04.633Z,13.35
2023-05-09T23:52:07.041Z,13.24
2023-05-09T23:55:09.814Z,13.21
2023-05-09T23:58:12.758Z,13.16
